^^
Meteo Knjazevac Station Historical Data
Daily Summary for June 13, 2022 Units:  English    Metric   Both
Daily Weekly Monthly Yearly Custom
  High: Low: Average:
Temperature: 59.5 °F 34.9 °F 44.6 °F
Dew Point: 51.6 °F 34.6 °F 42.6 °F
Humidity: 99% 75% 94%
Wind Speed: 10.9mph 0.1mph 3.1mph
Wind Gust: 12mph - -
Wind- - South
Pressure: 30.47 in 30.37 in -
Precipitation: 0.00 in    
Historical Graphs
 
 
Tabular Data for June 13, 2022
Time Temperature Dew Point Pressure Wind Wind Speed Wind Gust Humidity Rainfall Rate (Hourly) solar Conditions
00:04 43.6 °F 42.5 °F 30.46 in South 4.3 mph 6 mph 96% 0.00 in 0 W/m2
00:09 43.5 °F 42.9 °F 30.46 in SW 3.2 mph 5 mph 97.5% 0.00 in 0 W/m2
00:14 43.3 °F 42.8 °F 30.46 in NW 2.5 mph 4 mph 98% 0.00 in 0 W/m2
00:19 43.2 °F 42.6 °F 30.46 in SW 3.4 mph 3 mph 98% 0.00 in 0 W/m2
00:24 43.2 °F 42.6 °F 30.46 in West 2.8 mph 4 mph 98% 0.00 in 0 W/m2
00:29 43 °F 42.5 °F 30.46 in West 3.9 mph 5 mph 98% 0.00 in 0 W/m2
00:34 43 °F 42.5 °F 30.46 in West 2.8 mph 5 mph 98% 0.00 in 0 W/m2
00:39 43 °F 42.5 °F 30.46 in NW 1.3 mph 3 mph 98% 0.00 in 0 W/m2
00:44 43 °F 42.5 °F 30.46 in NNW 3.1 mph 2.9 mph 98% 0.00 in 0 W/m2
00:49 42.9 °F 42.5 °F 30.46 in North 1.5 mph 4 mph 98.7% 0.00 in 0 W/m2
00:54 42.8 °F 42.5 °F 30.46 in NNE 2.1 mph 2 mph 99% 0.00 in 0 W/m2
00:59 42.8 °F 42.5 °F 30.46 in NE 2.9 mph 3 mph 99% 0.00 in 0 W/m2
01:04 42.8 °F 42.5 °F 30.46 in ENE 1.5 mph 3 mph 99% 0.00 in 0 W/m2
01:09 42.9 °F 42.6 °F 30.46 in SW 1.4 mph 2 mph 99% 0.00 in 0 W/m2
01:14 42.9 °F 42.6 °F 30.46 in NNW 0.4 mph 2 mph 99% 0.00 in 0 W/m2
01:19 42.8 °F 42.5 °F 30.45 in North 1.5 mph 2 mph 99% 0.00 in 0 W/m2
01:24 42.7 °F 42.4 °F 30.45 in North 1 mph 2 mph 99% 0.00 in 0 W/m2
01:29 42.6 °F 42.4 °F 30.45 in NNE 3 mph 3.1 mph 99% 0.00 in 0 W/m2
01:34 42.4 °F 42.2 °F 30.45 in NNE 3.8 mph 4 mph 99% 0.00 in 0 W/m2
01:39 42.4 °F 42.2 °F 30.45 in NE 2.4 mph 5 mph 99% 0.00 in 0 W/m2
01:44 42.2 °F 41.8 °F 30.45 in NNE 1.1 mph 4 mph 98.5% 0.00 in 0 W/m2
01:49 42 °F 41.5 °F 30.45 in North 2.2 mph 2 mph 98% 0.00 in 0 W/m2
01:54 41.8 °F 41.3 °F 30.45 in North 2 mph 2 mph 98% 0.00 in 0 W/m2
01:59 41.5 °F 41 °F 30.45 in North 1.9 mph 2.2 mph 98% 0.00 in 0 W/m2
02:04 41.4 °F 40.8 °F 30.45 in NNW 1 mph 3 mph 98% 0.00 in 0 W/m2
02:09 41.2 °F 40.8 °F 30.45 in North 2.3 mph 2.9 mph 98.7% 0.00 in 0 W/m2
02:14 41.2 °F 40.9 °F 30.45 in NE 4.4 mph 4.5 mph 99% 0.00 in 0 W/m2
02:19 41.2 °F 40.9 °F 30.45 in NE 3.1 mph 6 mph 99% 0.00 in 0 W/m2
02:24 41.1 °F 40.8 °F 30.44 in NE 3.3 mph 3.6 mph 99% 0.00 in 0 W/m2
02:29 41 °F 40.7 °F 30.44 in NE 3.6 mph 5 mph 99% 0.00 in 0 W/m2
02:34 40.9 °F 40.6 °F 30.44 in NE 2.5 mph 4 mph 99% 0.00 in 0 W/m2
02:39 40.6 °F 40.4 °F 30.45 in North 2.8 mph 3 mph 99% 0.00 in 0 W/m2
02:44 40.4 °F 40.1 °F 30.45 in WNW 2.6 mph 3 mph 99% 0.00 in 0 W/m2
02:49 40.1 °F 39.8 °F 30.45 in NW 1.9 mph 3 mph 99% 0.00 in 0 W/m2
02:54 40 °F 39.7 °F 30.45 in NNW 1.7 mph 2 mph 99% 0.00 in 0 W/m2
02:59 39.8 °F 39.6 °F 30.45 in NNW 0.8 mph 2 mph 99% 0.00 in 0 W/m2
03:04 39.7 °F 39.5 °F 30.45 in NNW 1.7 mph 2 mph 99% 0.00 in 0 W/m2
03:09 39.7 °F 39.4 °F 30.45 in NNW 1.1 mph 2 mph 99% 0.00 in 0 W/m2
03:14 39.4 °F 39.1 °F 30.45 in NW 1.9 mph 1.8 mph 99% 0.00 in 0 W/m2
03:19 39.1 °F 38.8 °F 30.45 in NW 3 mph 2.5 mph 99% 0.00 in 0 W/m2
03:24 38.9 °F 38.7 °F 30.45 in NW 1.9 mph 3 mph 99% 0.00 in 0 W/m2
03:29 38.8 °F 38.6 °F 30.45 in NNW 0.8 mph 2 mph 99% 0.00 in 0 W/m2
03:34 38.8 °F 38.5 °F 30.45 in NW 1.1 mph 1 mph 99% 0.00 in 0 W/m2
03:39 38.6 °F 38.3 °F 30.45 in SE 1.7 mph 2 mph 99% 0.00 in 0 W/m2
03:44 38.4 °F 38.1 °F 30.45 in ESE 2.2 mph 2 mph 99% 0.00 in 0 W/m2
03:49 38.2 °F 38 °F 30.45 in WNW 2.5 mph 2.2 mph 99% 0.00 in 0 W/m2
03:54 38.1 °F 37.9 °F 30.45 in WNW 2.9 mph 4 mph 99% 0.00 in 0 W/m2
03:59 38.1 °F 37.9 °F 30.45 in West 2.1 mph 4 mph 99% 0.00 in 0 W/m2
04:04 38.1 °F 37.9 °F 30.45 in West 0.7 mph 2 mph 99% 0.00 in 0 W/m2
04:09 38 °F 37.8 °F 30.45 in WNW 1.1 mph 1 mph 99% 0.00 in 0 W/m2
04:14 37.9 °F 37.6 °F 30.45 in WNW 1.8 mph 1.6 mph 99% 0.00 in 0 W/m2
04:19 37.7 °F 37.4 °F 30.45 in West 1.1 mph 2 mph 99% 0.00 in 0 W/m2
04:24 37.4 °F 37.1 °F 30.45 in NW 2.1 mph 2 mph 99% 0.00 in 0 W/m2
04:29 37.3 °F 37 °F 30.45 in NNW 2 mph 3 mph 99% 0.00 in 0 W/m2
04:34 37.2 °F 37 °F 30.45 in NNW 2 mph 3 mph 99% 0.00 in 0 W/m2
04:39 37 °F 36.8 °F 30.45 in NW 1.3 mph 2 mph 99% 0.00 in 0 W/m2
04:44 36.8 °F 36.5 °F 30.45 in NW 1.9 mph 1.1 mph 99% 0.00 in 0 W/m2
04:49 36.7 °F 36.4 °F 30.45 in WNW 1.5 mph 2 mph 99% 0.00 in 0 W/m2
04:54 36.7 °F 36.4 °F 30.45 in WNW 0.2 mph 2 mph 99% 0.00 in 0 W/m2
04:59 36.7 °F 36.4 °F 30.45 in West 2.1 mph 2.2 mph 99% 0.00 in 0 W/m2
05:04 36.7 °F 36.4 °F 30.45 in West 2.4 mph 3 mph 99% 0.00 in 0 W/m2
05:09 36.7 °F 36.4 °F 30.45 in WSW 1.5 mph 3 mph 99% 0.00 in 0 W/m2
05:14 36.7 °F 36.4 °F 30.45 in SW 0.8 mph 2 mph 99% 0.00 in 0 W/m2
05:19 36.7 °F 36.4 °F 30.46 in ESE 1.5 mph 2 mph 99% 0.00 in 0 W/m2
05:24 36.7 °F 36.4 °F 30.46 in NE 2 mph 2 mph 99% 0.00 in 0 W/m2
05:29 36.5 °F 36.2 °F 30.46 in North 0.8 mph 2 mph 99% 0.00 in 0 W/m2
05:34 36.3 °F 36.1 °F 30.45 in West 0.8 mph 2 mph 99% 0.00 in 0 W/m2
05:39 36.2 °F 36 °F 30.46 in NNE 0.1 mph 1 mph 99% 0.00 in 0 W/m2
05:44 36.1 °F 35.9 °F 30.45 in NE 2.2 mph 2 mph 99% 0.00 in 0 W/m2
05:49 36.2 °F 36 °F 30.46 in NE 1.4 mph 2 mph 99% 0.00 in 0 W/m2
05:54 36.1 °F 35.9 °F 30.46 in NE 2.5 mph 2.2 mph 99% 0.00 in 0 W/m2
05:59 36 °F 35.8 °F 30.45 in NE 1.5 mph 3 mph 99% 0.00 in 0 W/m2
06:04 35.9 °F 35.6 °F 30.45 in NNE 1.6 mph 2 mph 99% 0.00 in 0 W/m2
06:09 35.5 °F 35.3 °F 30.46 in NW 2.5 mph 2.5 mph 99% 0.00 in 0 W/m2
06:14 35.2 °F 35 °F 30.46 in WNW 2.8 mph 3 mph 99% 0.00 in 1 W/m2
06:19 35.2 °F 34.9 °F 30.46 in NNW 0.5 mph 3 mph 99% 0.00 in 3 W/m2
06:24 35.2 °F 35 °F 30.46 in North 0.2 mph 1 mph 99% 0.00 in 6 W/m2
06:29 35.2 °F 35 °F 30.46 in North 1.7 mph 2 mph 99% 0.00 in 9 W/m2
06:34 35.2 °F 35 °F 30.46 in NNE 3.4 mph 3 mph 99% 0.00 in 13 W/m2
06:39 35.4 °F 35.2 °F 30.46 in NNE 3.4 mph 4 mph 99% 0.00 in 18 W/m2
06:44 35.3 °F 35.1 °F 30.46 in NNE 1.9 mph 4 mph 99% 0.00 in 22 W/m2
06:49 35.2 °F 35 °F 30.46 in North 1.1 mph 2 mph 99% 0.00 in 25 W/m2
06:54 35.1 °F 34.9 °F 30.46 in NNW 0.6 mph 2 mph 99% 0.00 in 33 W/m2
06:59 35.2 °F 34.9 °F 30.46 in North 2.5 mph 2.2 mph 99% 0.00 in 39 W/m2
07:04 35.2 °F 35 °F 30.46 in North 2.2 mph 3 mph 99% 0.00 in 40 W/m2
07:09 34.9 °F 34.6 °F 30.46 in NW 3.4 mph 4 mph 99% 0.00 in 39 W/m2
07:14 34.9 °F 34.6 °F 30.46 in WNW 4.1 mph 5 mph 99% 0.00 in 39 W/m2
07:19 35.1 °F 34.8 °F 30.47 in West 2.6 mph 5 mph 99% 0.00 in 45 W/m2
07:24 35.2 °F 34.9 °F 30.46 in West 2.4 mph 3 mph 99% 0.00 in 53 W/m2
07:29 35.2 °F 35 °F 30.47 in West 3.4 mph 3 mph 99% 0.00 in 53 W/m2
07:34 35.2 °F 35 °F 30.47 in West 3.4 mph 4 mph 99% 0.00 in 50 W/m2
07:39 35.5 °F 35.3 °F 30.46 in NNW 4.2 mph 4.2 mph 99% 0.00 in 53 W/m2
07:44 36.3 °F 36 °F 30.46 in NNE 3.3 mph 6 mph 99% 0.00 in 63 W/m2
07:49 36.6 °F 36.3 °F 30.46 in NE 2.3 mph 4 mph 99% 0.00 in 63 W/m2
07:54 36.5 °F 36.2 °F 30.46 in NNW 1.7 mph 2 mph 99% 0.00 in 62 W/m2
07:59 36.5 °F 36.2 °F 30.46 in West 0.5 mph 2 mph 99% 0.00 in 68 W/m2
08:04 36.7 °F 36.4 °F 30.46 in WNW 2 mph 2.5 mph 99% 0.00 in 69 W/m2
08:09 36.9 °F 36.7 °F 30.46 in West 3.4 mph 3 mph 99% 0.00 in 66 W/m2
08:14 37.1 °F 36.9 °F 30.46 in West 3.4 mph 3 mph 99% 0.00 in 74 W/m2
08:19 37.5 °F 37.2 °F 30.46 in WNW 3.9 mph 3 mph 99% 0.00 in 85 W/m2
08:24 37.8 °F 37.5 °F 30.46 in WNW 0.5 mph 6 mph 99% 0.00 in 88 W/m2
08:29 38.1 °F 37.9 °F 30.46 in NW 2 mph 1.8 mph 99% 0.00 in 94 W/m2
08:34 38.5 °F 38.2 °F 30.46 in WNW 1.3 mph 3 mph 99% 0.00 in 92 W/m2
08:39 38.8 °F 38.6 °F 30.46 in NNW 1.3 mph 2 mph 99% 0.00 in 110 W/m2
08:44 39.3 °F 39.1 °F 30.46 in NNE 3.5 mph 3.6 mph 99% 0.00 in 110 W/m2
08:49 39.8 °F 39.6 °F 30.46 in NE 3.5 mph 5 mph 99% 0.00 in 100 W/m2
08:54 40.2 °F 39.9 °F 30.46 in NE 3.9 mph 5 mph 99% 0.00 in 109 W/m2
08:59 40.3 °F 40 °F 30.46 in NE 1.3 mph 5 mph 99% 0.00 in 109 W/m2
09:04 40.3 °F 40 °F 30.46 in NNE 2.1 mph 2 mph 99% 0.00 in 162 W/m2
09:09 40.5 °F 40.3 °F 30.46 in NNE 2.5 mph 2 mph 99% 0.00 in 142 W/m2
09:14 41 °F 40.7 °F 30.46 in NE 3.4 mph 3 mph 99% 0.00 in 238 W/m2
09:19 41.5 °F 41.2 °F 30.45 in NE 3.4 mph 5 mph 99% 0.00 in 251 W/m2
09:24 41.8 °F 41.6 °F 30.45 in NE 2.7 mph 5 mph 99% 0.00 in 188 W/m2
09:29 41.8 °F 41.5 °F 30.45 in ENE 1.4 mph 3 mph 99% 0.00 in 179 W/m2
09:34 41.9 °F 41.6 °F 30.45 in ENE 1.7 mph 2 mph 99% 0.00 in 203 W/m2
09:39 42.2 °F 41.9 °F 30.45 in NNE 1.6 mph 2 mph 99% 0.00 in 212 W/m2
09:44 42.5 °F 42.3 °F 30.45 in NNE 3.5 mph 3.4 mph 99% 0.00 in 265 W/m2
09:49 43 °F 42.7 °F 30.45 in NE 5.3 mph 6 mph 99% 0.00 in 324 W/m2
09:54 43.4 °F 43.2 °F 30.45 in NE 4.1 mph 6 mph 99% 0.00 in 282 W/m2
09:59 43.7 °F 43.4 °F 30.45 in NE 2.1 mph 5 mph 99% 0.00 in 353 W/m2
10:04 43.9 °F 43.6 °F 30.45 in ENE 2.3 mph 4 mph 99% 0.00 in 480 W/m2
10:09 45 °F 44.7 °F 30.45 in SSE 2.5 mph 3 mph 99% 0.00 in 480 W/m2
10:14 45.5 °F 45.2 °F 30.45 in SE 2.7 mph 3 mph 99% 0.00 in 477 W/m2
10:19 46.2 °F 45.9 °F 30.45 in NE 2.2 mph 4 mph 99% 0.00 in 456 W/m2
10:24 46.8 °F 46.6 °F 30.45 in NNW 3.1 mph 3 mph 99% 0.00 in 440 W/m2
10:29 47.2 °F 46.7 °F 30.45 in South 3.2 mph 4 mph 98.1% 0.00 in 456 W/m2
10:34 47.6 °F 46.7 °F 30.45 in East 3.8 mph 4 mph 96.4% 0.00 in 466 W/m2
10:39 47.5 °F 46.4 °F 30.44 in SE 3.3 mph 6 mph 96% 0.00 in 463 W/m2
10:44 47.8 °F 46.7 °F 30.44 in ESE 4.7 mph 4 mph 96% 0.00 in 476 W/m2
10:49 48.4 °F 47.1 °F 30.44 in East 4.6 mph 6 mph 95.2% 0.00 in 470 W/m2
10:54 48.7 °F 47.3 °F 30.44 in SE 3.5 mph 5 mph 94.7% 0.00 in 478 W/m2
10:59 49.3 °F 47.7 °F 30.44 in East 2.6 mph 4 mph 94% 0.00 in 479 W/m2
11:04 50.1 °F 48.2 °F 30.43 in East 3.4 mph 4 mph 93.2% 0.00 in 481 W/m2
11:09 50.6 °F 48.4 °F 30.43 in SSW 3.9 mph 4 mph 92.1% 0.00 in 484 W/m2
11:14 51.1 °F 48.4 °F 30.43 in SSW 4.7 mph 6 mph 90.6% 0.00 in 487 W/m2
11:19 51.2 °F 48.3 °F 30.43 in South 3.3 mph 6 mph 90% 0.00 in 483 W/m2
11:24 51.9 °F 49 °F 30.43 in SSW 3.6 mph 4 mph 90% 0.00 in 480 W/m2
11:29 52.2 °F 49.1 °F 30.43 in SSW 3.4 mph 5 mph 89% 0.00 in 479 W/m2
11:34 52.8 °F 49.4 °F 30.42 in SSW 3.5 mph 6 mph 88.3% 0.00 in 462 W/m2
11:39 53.2 °F 49.4 °F 30.42 in South 3.6 mph 4 mph 86.7% 0.00 in 409 W/m2
11:44 53.6 °F 49.5 °F 30.42 in SSE 4.1 mph 5 mph 86% 0.00 in 429 W/m2
11:49 54.1 °F 49.8 °F 30.42 in NNE 2.5 mph 5 mph 85.3% 0.00 in 263 W/m2
11:54 54.8 °F 50.2 °F 30.42 in NW 2.6 mph 2.2 mph 84.6% 0.00 in 365 W/m2
11:59 55.3 °F 50.6 °F 30.41 in SW 3.1 mph 3 mph 84.1% 0.00 in 357 W/m2
12:04 55.8 °F 50.5 °F 30.41 in WNW 4.3 mph 5 mph 82.5% 0.00 in 320 W/m2
12:09 56.5 °F 50.6 °F 30.41 in NNE 4.4 mph 5 mph 80.6% 0.00 in 326 W/m2
12:14 57.3 °F 51.1 °F 30.41 in North 6.2 mph 5.8 mph 79.8% 0.00 in 338 W/m2
12:19 57.8 °F 51.3 °F 30.41 in North 5.2 mph 8 mph 79.1% 0.00 in 386 W/m2
12:24 58.2 °F 51.5 °F 30.40 in North 6.6 mph 7 mph 78.5% 0.00 in 318 W/m2
12:29 58.3 °F 51.4 °F 30.40 in North 6 mph 8 mph 77.9% 0.00 in 393 W/m2
12:34 58.5 °F 51.6 °F 30.40 in North 8 mph 7 mph 78% 0.00 in 353 W/m2
12:39 58.6 °F 51.6 °F 30.40 in North 7.4 mph 11 mph 77.5% 0.00 in 415 W/m2
12:44 58.7 °F 51.5 °F 30.40 in North 8.1 mph 8 mph 77.1% 0.00 in 427 W/m2
12:49 58.8 °F 51.6 °F 30.40 in North 8.5 mph 10 mph 77% 0.00 in 425 W/m2
12:54 58.8 °F 51.6 °F 30.40 in North 8.2 mph 9 mph 77% 0.00 in 412 W/m2
12:59 58.9 °F 51.6 °F 30.40 in North 9.8 mph 11 mph 76.7% 0.00 in 401 W/m2
13:04 59.1 °F 51.3 °F 30.39 in NNE 10.9 mph 11 mph 75.2% 0.00 in 393 W/m2
13:09 59.1 °F 51.2 °F 30.39 in North 8.1 mph 12 mph 75% 0.00 in 386 W/m2
13:14 59 °F 51.1 °F 30.39 in North 9.1 mph 12 mph 75% 0.00 in 371 W/m2
13:19 59.1 °F 51.2 °F 30.39 in NNE 8.6 mph 12 mph 75% 0.00 in 363 W/m2
13:24 59.2 °F 51.3 °F 30.39 in NNE 7.1 mph 9 mph 75% 0.00 in 354 W/m2
13:29 59.3 °F 51.4 °F 30.39 in North 7.3 mph 7 mph 75% 0.00 in 345 W/m2
13:34 59.5 °F 51.5 °F 30.38 in North 8 mph 8 mph 75% 0.00 in 334 W/m2
13:39 59.5 °F 51.6 °F 30.38 in NNE 8.5 mph 9 mph 75% 0.00 in 326 W/m2
13:44 59.4 °F 51.4 °F 30.38 in NNE 7.1 mph 9 mph 75% 0.00 in 313 W/m2
13:49 59.3 °F 51.3 °F 30.38 in North 6.7 mph 7 mph 75% 0.00 in 302 W/m2
13:54 59.3 °F 51.4 °F 30.38 in North 7.5 mph 8 mph 75% 0.00 in 286 W/m2
13:59 59.4 °F 51.4 °F 30.38 in North 6.3 mph 8 mph 75% 0.00 in 275 W/m2
14:04 59.4 °F 51.4 °F 30.38 in North 6.3 mph 7 mph 75% 0.00 in 263 W/m2
14:09 59.3 °F 51.3 °F 30.38 in North 7.8 mph 7 mph 75% 0.00 in 249 W/m2
14:14 59.2 °F 51.3 °F 30.38 in North 7.4 mph 9 mph 75% 0.00 in 238 W/m2
14:19 59.2 °F 51.3 °F 30.38 in North 5.4 mph 9 mph 75% 0.00 in 225 W/m2
14:24 59 °F 51.1 °F 30.38 in North 8 mph 7 mph 75% 0.00 in 215 W/m2
14:29 58.8 °F 50.9 °F 30.38 in North 7.4 mph 9 mph 75% 0.00 in 199 W/m2
14:34 58.8 °F 50.9 °F 30.38 in North 5.8 mph 8 mph 75% 0.00 in 190 W/m2
14:39 58.6 °F 50.9 °F 30.38 in North 7.9 mph 6 mph 75.5% 0.00 in 177 W/m2
14:44 58.5 °F 51.2 °F 30.38 in North 5.3 mph 10 mph 76.8% 0.00 in 162 W/m2
14:49 58.2 °F 51 °F 30.38 in NNE 7.4 mph 7 mph 77% 0.00 in 151 W/m2
14:54 57.9 °F 50.8 °F 30.38 in North 6.5 mph 8 mph 77% 0.00 in 140 W/m2
14:59 57.7 °F 50.8 °F 30.38 in North 7 mph 10 mph 77.5% 0.00 in 129 W/m2
15:04 57.6 °F 50.8 °F 30.37 in North 9.1 mph 8 mph 78% 0.00 in 113 W/m2
15:09 57.3 °F 50.5 °F 30.38 in NNE 8.7 mph 12 mph 78% 0.00 in 100 W/m2
15:14 56.9 °F 50.4 °F 30.38 in North 7.6 mph 9 mph 78.8% 0.00 in 89 W/m2
15:19 56.8 °F 50.3 °F 30.38 in North 6.6 mph 10 mph 79% 0.00 in 77 W/m2
15:24 56.5 °F 50.3 °F 30.38 in North 5.8 mph 8 mph 79.5% 0.00 in 69 W/m2
15:29 56.2 °F 50.1 °F 30.38 in North 5.6 mph 8 mph 80% 0.00 in 57 W/m2
15:34 55.9 °F 49.9 °F 30.38 in North 4.8 mph 6 mph 80.2% 0.00 in 48 W/m2
15:39 55.5 °F 49.8 °F 30.38 in North 5 mph 6 mph 81% 0.00 in 42 W/m2
15:44 55.3 °F 49.6 °F 30.38 in North 4.2 mph 6 mph 81% 0.00 in 32 W/m2
15:49 55 °F 50 °F 30.38 in North 4.5 mph 5 mph 82.9% 0.00 in 26 W/m2
15:54 54.8 °F 49.7 °F 30.38 in North 3.9 mph 6 mph 83% 0.00 in 20 W/m2
15:59 54.6 °F 49.5 °F 30.38 in North 3.1 mph 5 mph 83% 0.00 in 15 W/m2
16:04 54.2 °F 49.4 °F 30.38 in North 2.7 mph 4 mph 83.9% 0.00 in 11 W/m2
16:09 54 °F 49.2 °F 30.38 in NNW 3.3 mph 5 mph 84% 0.00 in 7 W/m2
16:14 53.6 °F 48.9 °F 30.38 in North 2.3 mph 3 mph 84% 0.00 in 4 W/m2
16:19 53.3 °F 48.7 °F 30.38 in NNW 2.1 mph 3 mph 84.4% 0.00 in 2 W/m2
16:24 53 °F 48.6 °F 30.38 in NNW 3.5 mph 3.1 mph 85% 0.00 in 1 W/m2
16:29 52.6 °F 48.2 °F 30.38 in North 3.4 mph 5 mph 85% 0.00 in 0 W/m2
16:34 52.3 °F 48.3 °F 30.38 in North 3.3 mph 4 mph 85.8% 0.00 in 0 W/m2
16:39 52.1 °F 48 °F 30.38 in North 3.5 mph 3.6 mph 86% 0.00 in 0 W/m2
16:44 51.9 °F 47.8 °F 30.38 in North 3.8 mph 5 mph 86% 0.00 in 0 W/m2
16:49 51.6 °F 48 °F 30.38 in North 4.5 mph 5 mph 87.5% 0.00 in 0 W/m2
16:54 51.4 °F 48 °F 30.38 in North 4.8 mph 5 mph 88% 0.00 in 0 W/m2
16:59 51.3 °F 47.9 °F 30.38 in North 3.7 mph 6 mph 88.2% 0.00 in 0 W/m2
17:04 51 °F 47.9 °F 30.38 in North 4.8 mph 6 mph 89% 0.00 in 0 W/m2
17:09 50.8 °F 47.8 °F 30.38 in North 4.9 mph 5 mph 89.4% 0.00 in 0 W/m2
17:14 50.6 °F 47.8 °F 30.38 in North 4.4 mph 6 mph 90% 0.00 in 0 W/m2
17:19 50.5 °F 47.7 °F 30.39 in North 3.3 mph 5 mph 90% 0.00 in 0 W/m2
17:24 50.4 °F 47.6 °F 30.38 in North 3.4 mph 4 mph 90% 0.00 in 0 W/m2
17:29 50.2 °F 47.4 °F 30.38 in North 3 mph 4 mph 90% 0.00 in 0 W/m2
17:34 50 °F 47.5 °F 30.39 in North 3 mph 3 mph 90.8% 0.00 in 0 W/m2
17:39 49.7 °F 47.2 °F 30.39 in North 3.4 mph 3 mph 91% 0.00 in 0 W/m2
17:44 49.6 °F 47.3 °F 30.39 in North 2.8 mph 4 mph 91.8% 0.00 in 0 W/m2
17:49 49.3 °F 46.9 °F 30.39 in North 1.3 mph 4 mph 91.5% 0.00 in 0 W/m2
17:54 48.8 °F 46.1 °F 30.39 in North 0.7 mph 2 mph 90.3% 0.00 in 0 W/m2
17:59 48.5 °F 46 °F 30.39 in South 1.2 mph 1 mph 91% 0.00 in 0 W/m2
18:04 47.8 °F 45.3 °F 30.40 in SW 1.4 mph 2 mph 91% 0.00 in 0 W/m2
18:09 47.7 °F 45.2 °F 30.40 in West 1 mph 2 mph 91% 0.00 in 0 W/m2
18:14 47.5 °F 45.2 °F 30.39 in West 1.2 mph 1 mph 91.8% 0.00 in 0 W/m2
18:19 47.2 °F 45.3 °F 30.40 in NW 1.6 mph 2.2 mph 93% 0.00 in 0 W/m2
18:24 46.9 °F 44.9 °F 30.40 in WNW 2.9 mph 3 mph 93% 0.00 in 0 W/m2
18:29 46.5 °F 44.6 °F 30.40 in West 1.1 mph 3 mph 93% 0.00 in 0 W/m2
18:34 46.2 °F 44.3 °F 30.40 in WNW 2 mph 2 mph 93% 0.00 in 0 W/m2
18:39 45.8 °F 44.1 °F 30.40 in West 2.3 mph 2 mph 93.4% 0.00 in 0 W/m2
18:44 45.7 °F 44.3 °F 30.40 in SW 2.4 mph 3 mph 94.9% 0.00 in 0 W/m2
18:49 45.5 °F 44.2 °F 30.40 in WSW 1.5 mph 2 mph 95% 0.00 in 0 W/m2
18:54 45.5 °F 44.3 °F 30.40 in North 3.1 mph 2.2 mph 95.8% 0.00 in 0 W/m2
18:59 45.2 °F 43.8 °F 30.40 in West 2.4 mph 4 mph 94.8% 0.00 in 0 W/m2
19:04 45 °F 43.6 °F 30.39 in NW 1.6 mph 4 mph 94.9% 0.00 in 0 W/m2
19:09 44.7 °F 43.4 °F 30.40 in North 1.2 mph 2 mph 95% 0.00 in 0 W/m2
19:14 44.3 °F 43 °F 30.40 in WNW 0.8 mph 2 mph 95% 0.00 in 0 W/m2
19:19 44.1 °F 42.7 °F 30.40 in WNW 0.7 mph 2 mph 95% 0.00 in 0 W/m2
19:24 43.8 °F 42.5 °F 30.40 in North 0.3 mph 2 mph 95% 0.00 in 0 W/m2
19:29 43.5 °F 42.3 °F 30.40 in NNW 2.1 mph 2 mph 95.2% 0.00 in 0 W/m2
19:34 43.3 °F 42 °F 30.40 in NNW 1.5 mph 3 mph 95% 0.00 in 0 W/m2
19:39 43 °F 41.7 °F 30.40 in NNW 2.5 mph 2.5 mph 95% 0.00 in 0 W/m2
19:44 42.8 °F 41.5 °F 30.40 in NW 2 mph 3 mph 95% 0.00 in 0 W/m2
19:49 42.5 °F 41.4 °F 30.40 in NNW 2 mph 2 mph 95.6% 0.00 in 0 W/m2
19:54 42.3 °F 41 °F 30.40 in NNW 1.3 mph 2 mph 95.3% 0.00 in 0 W/m2
19:59 42 °F 40.9 °F 30.40 in NW 2.4 mph 2.5 mph 95.9% 0.00 in 0 W/m2
20:04 41.8 °F 40.7 °F 30.40 in WNW 2.8 mph 3 mph 96% 0.00 in 0 W/m2
20:09 41.5 °F 40.4 °F 30.40 in West 2.9 mph 3 mph 96% 0.00 in 0 W/m2
20:14 41.3 °F 40.7 °F 30.40 in WSW 3.3 mph 3 mph 97.9% 0.00 in 0 W/m2
20:19 41 °F 40.5 °F 30.40 in WSW 2.5 mph 4 mph 98% 0.00 in 0 W/m2
20:24 40.8 °F 40.3 °F 30.40 in West 2.4 mph 3 mph 98% 0.00 in 0 W/m2
20:29 40.6 °F 40.1 °F 30.40 in West 3.5 mph 4 mph 98% 0.00 in 0 W/m2
20:34 40.5 °F 40.1 °F 30.40 in West 3.6 mph 4 mph 98.4% 0.00 in 0 W/m2
20:39 40.5 °F 40.2 °F 30.40 in West 4.1 mph 5 mph 99% 0.00 in 0 W/m2
20:44 40.4 °F 40.1 °F 30.40 in West 2.4 mph 5 mph 99% 0.00 in 0 W/m2
20:49 40.2 °F 39.9 °F 30.40 in West 0.2 mph 2 mph 99% 0.00 in 0 W/m2
20:54 40.1 °F 39.8 °F 30.40 in WNW 0.4 mph 0.2 mph 99% 0.00 in 0 W/m2
20:59 39.9 °F 39.7 °F 30.40 in WNW 1.9 mph 1.6 mph 99% 0.00 in 0 W/m2
21:04 39.7 °F 39.4 °F 30.40 in West 1.3 mph 2 mph 99% 0.00 in 0 W/m2
21:09 39.6 °F 39.3 °F 30.40 in WNW 2.3 mph 2 mph 99% 0.00 in 0 W/m2
21:14 39.5 °F 39.2 °F 30.40 in WNW 3.1 mph 3 mph 99% 0.00 in 0 W/m2
21:19 39.5 °F 39.2 °F 30.40 in WNW 3.9 mph 4 mph 99% 0.00 in 0 W/m2
21:24 39.6 °F 39.3 °F 30.40 in WNW 3.2 mph 5 mph 99% 0.00 in 0 W/m2
21:29 39.6 °F 39.3 °F 30.40 in WNW 2.8 mph 3 mph 99% 0.00 in 0 W/m2
21:34 39.6 °F 39.3 °F 30.39 in West 2.9 mph 3 mph 99% 0.00 in 0 W/m2
21:39 39.6 °F 39.3 °F 30.39 in West 3.4 mph 3 mph 99% 0.00 in 0 W/m2
21:44 39.6 °F 39.3 °F 30.39 in West 3 mph 3 mph 99% 0.00 in 0 W/m2
21:49 39.5 °F 39.2 °F 30.39 in WNW 3.3 mph 3.4 mph 99% 0.00 in 0 W/m2
21:54 39.5 °F 39.2 °F 30.39 in West 3.9 mph 5 mph 99% 0.00 in 0 W/m2
21:59 39.4 °F 39.1 °F 30.39 in West 3.4 mph 5 mph 99% 0.00 in 0 W/m2
22:04 39.3 °F 39 °F 30.39 in WNW 3.3 mph 4 mph 99% 0.00 in 0 W/m2
22:09 39.2 °F 38.9 °F 30.39 in WNW 2.5 mph 4 mph 99% 0.00 in 0 W/m2
22:14 39 °F 38.8 °F 30.39 in West 2.2 mph 3 mph 99% 0.00 in 0 W/m2
22:19 38.7 °F 38.5 °F 30.39 in West 1.5 mph 2 mph 99% 0.00 in 0 W/m2
22:24 38.4 °F 38.1 °F 30.39 in West 2 mph 2 mph 99% 0.00 in 0 W/m2
22:29 38.1 °F 37.9 °F 30.39 in WNW 0.2 mph 2 mph 99% 0.00 in 0 W/m2
22:34 37.9 °F 37.6 °F 30.39 in North 0.4 mph 0.2 mph 99% 0.00 in 0 W/m2
22:39 37.7 °F 37.4 °F 30.39 in NNW 1.9 mph 1 mph 99% 0.00 in 0 W/m2
22:44 37.6 °F 37.3 °F 30.39 in NW 2.1 mph 2 mph 99% 0.00 in 0 W/m2
22:49 37.4 °F 37.1 °F 30.39 in WNW 0.7 mph 2 mph 99% 0.00 in 0 W/m2
22:54 37.4 °F 37.1 °F 30.39 in WNW 1.6 mph 2 mph 99% 0.00 in 0 W/m2
22:59 37.2 °F 37 °F 30.39 in West 2.2 mph 2 mph 99% 0.00 in 0 W/m2
23:04 37.1 °F 36.9 °F 30.39 in West 3.2 mph 2.9 mph 99% 0.00 in 0 W/m2
23:09 37 °F 36.8 °F 30.39 in West 3.5 mph 3.1 mph 99% 0.00 in 0 W/m2
23:14 36.9 °F 36.7 °F 30.39 in WNW 2.9 mph 4 mph 99% 0.00 in 0 W/m2
23:19 36.9 °F 36.6 °F 30.38 in NW 2.2 mph 3 mph 99% 0.00 in 0 W/m2
23:24 37 °F 36.8 °F 30.38 in NNW 0.7 mph 3 mph 99% 0.00 in 0 W/m2
23:29 37.1 °F 36.9 °F 30.38 in NNW 2 mph 2 mph 99% 0.00 in 0 W/m2
23:34 37 °F 36.8 °F 30.38 in NW 2.2 mph 2 mph 99% 0.00 in 0 W/m2
23:39 37 °F 36.8 °F 30.38 in NW 0.7 mph 2 mph 99% 0.00 in 0 W/m2
23:44 36.9 °F 36.6 °F 30.38 in NNW 1.9 mph 2 mph 99% 0.00 in 0 W/m2
23:49 36.7 °F 36.4 °F 30.38 in NW 1.9 mph 2.7 mph 99% 0.00 in 0 W/m2
23:54 36.4 °F 36.2 °F 30.38 in West 3.2 mph 3 mph 99% 0.00 in 0 W/m2
23:59 36.2 °F 36 °F 30.38 in West 2.4 mph 3 mph 99% 0.00 in 0 W/m2
Knjazevac, Serbia
Compliments of Weather Underground - 4 mb